nctcog logo
 
weather label
 

NCTCOG Roof-top Weather Statistics


image description hereStatistical data from the Weather Station atop the Centerpoint II Office Complex. Data is captured hourly and summarized by day.

Current Weather at NCTCOG

 Temperature: 91.0
 Humidity: 41.0%
 Wind: 4.6 mph Variable
 Gust:
 Pressure: 29.84 inches
 Rainfall Today:
 Updated: 5/26/2018
 At: 12:15:04 PM

Page: 1 2 3 4 5 6 7 8 9 10 11 12 13 14 15 16 17 18 19
Daily Weather Statistics at NCTCOG
Date Month Day Min Temp Max Temp Pressure Dew Point Rainfall Max Wind
 
20180526 May Saturday 70 91 29.82  69.1   in. mph
20180525 May Friday 75 90 29.91  71.1   in. mph
20180524 May Thursday 70 89 30.02  71.1   in. mph
20180523 May Wednesday 70 90 30  70   in. mph
20180522 May Tuesday 69 88 29.97  69.1   in. mph
20180521 May Monday 67 88 29.98  69.1   in. mph
20180520 May Sunday 66 80 29.99  69.1   in. mph
 
20180519 May Saturday 73 91 29.83  68   in. mph
20180518 May Friday 71 95 29.76  69.1   in. mph
20180517 May Thursday 69 92 29.86  66   in. mph
20180516 May Wednesday 69 91 29.9  64.9   in. mph
20180515 May Tuesday 73 87 29.92  70   in. mph
20180514 May Monday 73 89 29.92  70   in. mph
20180513 May Sunday 72 89 29.95  69.1   in. mph
 
20180512 May Saturday 73 89 29.92  69.1   in. mph
20180511 May Friday 70 88 29.88  64.9   in. mph
20180510 May Thursday 65 86 29.95  63   in. mph
20180509 May Wednesday 67 87 29.95  59   in. mph
20180508 May Tuesday 67 90 29.97  60.1   in. mph
20180507 May Monday 63 92 30.07  61   in. mph
20180506 May Sunday 59 87 30.1  57.9   in. mph
 
20180505 May Saturday 59 82 30.11  61   in. mph
 
 CONTACT US | SITE MAP | LEGAL | SYSTEM REQUIREMENTS
 North Central Texas Council of Governments | 616 Six Flags Drive P.O. Box 5888 Arlington, TX 76005-5888
 Main Operator: (817) 640-3300 | Fax: (817) 640-7806